sensor_id;sensor_type;location;lat;lon;timestamp;P1;durP1;ratioP1;P2;durP2;ratioP2
2998;SDS011;1509;51.964;7.628;2022-11-28T00:01:07;6.13;;;4.60;;
2998;SDS011;1509;51.964;7.628;2022-11-28T00:03:38;5.83;;;4.17;;
2998;SDS011;1509;51.964;7.628;2022-11-28T00:06:04;6.33;;;4.93;;
2998;SDS011;1509;51.964;7.628;2022-11-28T00:08:31;8.30;;;5.70;;
2998;SDS011;1509;51.964;7.628;2022-11-28T00:10:57;6.20;;;4.50;;
2998;SDS011;1509;51.964;7.628;2022-11-28T00:13:26;7.53;;;4.87;;
2998;SDS011;1509;51.964;7.628;2022-11-28T00:15:56;6.83;;;4.30;;
2998;SDS011;1509;51.964;7.628;2022-11-28T00:18:22;4.63;;;4.03;;
2998;SDS011;1509;51.964;7.628;2022-11-28T00:20:48;9.17;;;5.37;;
2998;SDS011;1509;51.964;7.628;2022-11-28T00:23:14;8.90;;;4.80;;
2998;SDS011;1509;51.964;7.628;2022-11-28T00:25:40;8.50;;;4.97;;
2998;SDS011;1509;51.964;7.628;2022-11-28T00:28:05;7.13;;;4.30;;
2998;SDS011;1509;51.964;7.628;2022-11-28T00:30:34;6.93;;;4.77;;
2998;SDS011;1509;51.964;7.628;2022-11-28T00:33:00;5.83;;;4.80;;
2998;SDS011;1509;51.964;7.628;2022-11-28T00:35:26;8.10;;;4.93;;
2998;SDS011;1509;51.964;7.628;2022-11-28T00:37:52;7.23;;;5.00;;
2998;SDS011;1509;51.964;7.628;2022-11-28T00:40:18;6.50;;;4.83;;
2998;SDS011;1509;51.964;7.628;2022-11-28T00:42:43;9.50;;;5.27;;
2998;SDS011;1509;51.964;7.628;2022-11-28T00:45:09;5.77;;;4.80;;
2998;SDS011;1509;51.964;7.628;2022-11-28T00:47:34;8.30;;;5.30;;
2998;SDS011;1509;51.964;7.628;2022-11-28T00:50:00;5.40;;;4.33;;
2998;SDS011;1509;51.964;7.628;2022-11-28T00:52:26;7.30;;;4.60;;
2998;SDS011;1509;51.964;7.628;2022-11-28T00:54:51;7.17;;;5.13;;
2998;SDS011;1509;51.964;7.628;2022-11-28T00:57:17;7.10;;;5.07;;
2998;SDS011;1509;51.964;7.628;2022-11-28T00:59:42;6.97;;;5.10;;
2998;SDS011;1509;51.964;7.628;2022-11-28T01:02:08;8.17;;;5.17;;
2998;SDS011;1509;51.964;7.628;2022-11-28T01:04:33;7.77;;;4.83;;
2998;SDS011;1509;51.964;7.628;2022-11-28T01:06:59;6.90;;;5.87;;
2998;SDS011;1509;51.964;7.628;2022-11-28T01:09:26;8.23;;;5.47;;
2998;SDS011;1509;51.964;7.628;2022-11-28T01:11:52;7.23;;;5.40;;
2998;SDS011;1509;51.964;7.628;2022-11-28T01:14:20;6.97;;;4.97;;
2998;SDS011;1509;51.964;7.628;2022-11-28T01:16:47;6.20;;;4.77;;
2998;SDS011;1509;51.964;7.628;2022-11-28T01:19:13;10.10;;;5.80;;
2998;SDS011;1509;51.964;7.628;2022-11-28T01:21:39;7.87;;;6.03;;
2998;SDS011;1509;51.964;7.628;2022-11-28T01:24:04;7.10;;;5.80;;
2998;SDS011;1509;51.964;7.628;2022-11-28T01:26:30;6.70;;;4.90;;
2998;SDS011;1509;51.964;7.628;2022-11-28T01:28:57;8.07;;;5.40;;
2998;SDS011;1509;51.964;7.628;2022-11-28T01:31:24;9.30;;;5.57;;
2998;SDS011;1509;51.964;7.628;2022-11-28T01:33:52;8.97;;;5.10;;
2998;SDS011;1509;51.964;7.628;2022-11-28T01:36:18;27.53;;;5.77;;
2998;SDS011;1509;51.964;7.628;2022-11-28T01:38:45;8.13;;;5.07;;
2998;SDS011;1509;51.964;7.628;2022-11-28T01:41:11;7.30;;;5.87;;
2998;SDS011;1509;51.964;7.628;2022-11-28T01:44:01;8.90;;;5.73;;
2998;SDS011;1509;51.964;7.628;2022-11-28T01:46:50;8.57;;;5.57;;
2998;SDS011;1509;51.964;7.628;2022-11-28T01:49:27;9.27;;;5.47;;
2998;SDS011;1509;51.964;7.628;2022-11-28T01:52:00;6.40;;;5.63;;
2998;SDS011;1509;51.964;7.628;2022-11-28T01:54:29;13.07;;;6.40;;
2998;SDS011;1509;51.964;7.628;2022-11-28T01:57:19;5.80;;;4.60;;
2998;SDS011;1509;51.964;7.628;2022-11-28T01:59:50;10.50;;;5.77;;
2998;SDS011;1509;51.964;7.628;2022-11-28T02:02:30;9.37;;;6.13;;
2998;SDS011;1509;51.964;7.628;2022-11-28T02:04:59;8.60;;;6.00;;
2998;SDS011;1509;51.964;7.628;2022-11-28T02:07:25;7.67;;;5.20;;
2998;SDS011;1509;51.964;7.628;2022-11-28T02:09:51;10.00;;;5.40;;
2998;SDS011;1509;51.964;7.628;2022-11-28T02:26:51;8.20;;;5.70;;
2998;SDS011;1509;51.964;7.628;2022-11-28T02:37:29;9.30;;;5.90;;
2998;SDS011;1509;51.964;7.628;2022-11-28T02:48:40;8.17;;;5.73;;
2998;SDS011;1509;51.964;7.628;2022-11-28T02:51:30;13.47;;;6.37;;
2998;SDS011;1509;51.964;7.628;2022-11-28T02:54:04;11.00;;;5.90;;
2998;SDS011;1509;51.964;7.628;2022-11-28T02:56:32;7.77;;;5.53;;
2998;SDS011;1509;51.964;7.628;2022-11-28T02:58:58;8.37;;;6.23;;
2998;SDS011;1509;51.964;7.628;2022-11-28T03:01:34;8.20;;;6.03;;
2998;SDS011;1509;51.964;7.628;2022-11-28T03:04:15;9.43;;;6.90;;
2998;SDS011;1509;51.964;7.628;2022-11-28T03:06:57;8.73;;;6.33;;
2998;SDS011;1509;51.964;7.628;2022-11-28T03:15:04;7.13;;;6.03;;
2998;SDS011;1509;51.964;7.628;2022-11-28T03:20:18;9.20;;;6.00;;
2998;SDS011;1509;51.964;7.628;2022-11-28T03:25:31;13.87;;;8.73;;
2998;SDS011;1509;51.964;7.628;2022-11-28T03:30:30;14.77;;;10.03;;
2998;SDS011;1509;51.964;7.628;2022-11-28T03:33:09;7.67;;;5.67;;
2998;SDS011;1509;51.964;7.628;2022-11-28T03:35:40;11.47;;;5.70;;
2998;SDS011;1509;51.964;7.628;2022-11-28T03:38:21;8.70;;;6.73;;
2998;SDS011;1509;51.964;7.628;2022-11-28T03:40:58;9.97;;;6.10;;
2998;SDS011;1509;51.964;7.628;2022-11-28T03:43:29;9.20;;;6.00;;
2998;SDS011;1509;51.964;7.628;2022-11-28T03:46:01;8.80;;;6.43;;
2998;SDS011;1509;51.964;7.628;2022-11-28T03:48:38;9.60;;;7.00;;
2998;SDS011;1509;51.964;7.628;2022-11-28T03:54:15;10.83;;;6.73;;
2998;SDS011;1509;51.964;7.628;2022-11-28T04:01:57;10.73;;;6.60;;
2998;SDS011;1509;51.964;7.628;2022-11-28T04:04:47;9.00;;;6.13;;
2998;SDS011;1509;51.964;7.628;2022-11-28T04:10:21;10.07;;;6.20;;
2998;SDS011;1509;51.964;7.628;2022-11-28T04:13:04;8.27;;;6.43;;
2998;SDS011;1509;51.964;7.628;2022-11-28T04:21:38;9.70;;;7.80;;
2998;SDS011;1509;51.964;7.628;2022-11-28T04:24:31;9.47;;;6.53;;
2998;SDS011;1509;51.964;7.628;2022-11-28T04:27:05;9.73;;;7.33;;
2998;SDS011;1509;51.964;7.628;2022-11-28T04:29:38;10.77;;;6.50;;
2998;SDS011;1509;51.964;7.628;2022-11-28T04:32:10;10.30;;;7.13;;
2998;SDS011;1509;51.964;7.628;2022-11-28T04:34:38;8.37;;;6.30;;
2998;SDS011;1509;51.964;7.628;2022-11-28T04:37:07;12.93;;;7.73;;
2998;SDS011;1509;51.964;7.628;2022-11-28T04:39:34;13.80;;;7.63;;
2998;SDS011;1509;51.964;7.628;2022-11-28T04:42:04;8.07;;;6.77;;
2998;SDS011;1509;51.964;7.628;2022-11-28T04:44:36;11.50;;;7.20;;
2998;SDS011;1509;51.964;7.628;2022-11-28T04:47:15;9.13;;;7.17;;
2998;SDS011;1509;51.964;7.628;2022-11-28T04:49:41;12.30;;;7.77;;
2998;SDS011;1509;51.964;7.628;2022-11-28T04:52:08;9.73;;;7.00;;
2998;SDS011;1509;51.964;7.628;2022-11-28T04:57:15;12.73;;;9.20;;
2998;SDS011;1509;51.964;7.628;2022-11-28T04:59:43;14.13;;;9.50;;
2998;SDS011;1509;51.964;7.628;2022-11-28T05:02:10;8.67;;;7.40;;
2998;SDS011;1509;51.964;7.628;2022-11-28T05:04:38;9.20;;;7.63;;
2998;SDS011;1509;51.964;7.628;2022-11-28T05:07:07;14.87;;;8.50;;
2998;SDS011;1509;51.964;7.628;2022-11-28T05:09:32;12.93;;;8.33;;
2998;SDS011;1509;51.964;7.628;2022-11-28T05:11:58;9.67;;;7.80;;
2998;SDS011;1509;51.964;7.628;2022-11-28T05:14:24;17.17;;;9.47;;
2998;SDS011;1509;51.964;7.628;2022-11-28T05:16:49;13.03;;;9.93;;
2998;SDS011;1509;51.964;7.628;2022-11-28T05:19:15;17.70;;;10.37;;
2998;SDS011;1509;51.964;7.628;2022-11-28T05:21:41;13.50;;;9.27;;
2998;SDS011;1509;51.964;7.628;2022-11-28T05:24:07;16.47;;;9.10;;
2998;SDS011;1509;51.964;7.628;2022-11-28T05:26:35;16.03;;;10.70;;
2998;SDS011;1509;51.964;7.628;2022-11-28T05:29:02;13.77;;;9.40;;
2998;SDS011;1509;51.964;7.628;2022-11-28T05:31:28;12.63;;;8.93;;
2998;SDS011;1509;51.964;7.628;2022-11-28T05:33:54;13.93;;;10.57;;
2998;SDS011;1509;51.964;7.628;2022-11-28T05:36:20;11.80;;;9.33;;
2998;SDS011;1509;51.964;7.628;2022-11-28T05:38:46;14.27;;;8.13;;
2998;SDS011;1509;51.964;7.628;2022-11-28T05:41:29;13.87;;;10.13;;
2998;SDS011;1509;51.964;7.628;2022-11-28T05:43:56;18.80;;;10.33;;
2998;SDS011;1509;51.964;7.628;2022-11-28T05:46:22;18.40;;;9.97;;
2998;SDS011;1509;51.964;7.628;2022-11-28T05:48:48;15.77;;;9.80;;
2998;SDS011;1509;51.964;7.628;2022-11-28T05:51:14;14.47;;;10.30;;
2998;SDS011;1509;51.964;7.628;2022-11-28T05:53:39;15.47;;;10.33;;
2998;SDS011;1509;51.964;7.628;2022-11-28T05:56:06;14.23;;;9.70;;
2998;SDS011;1509;51.964;7.628;2022-11-28T05:58:36;14.80;;;10.30;;
2998;SDS011;1509;51.964;7.628;2022-11-28T06:01:12;12.43;;;9.63;;
2998;SDS011;1509;51.964;7.628;2022-11-28T06:03:38;14.77;;;10.20;;
2998;SDS011;1509;51.964;7.628;2022-11-28T06:06:04;16.20;;;10.97;;
2998;SDS011;1509;51.964;7.628;2022-11-28T06:08:43;13.07;;;10.17;;
2998;SDS011;1509;51.964;7.628;2022-11-28T06:11:10;22.00;;;11.17;;
2998;SDS011;1509;51.964;7.628;2022-11-28T06:13:38;12.40;;;9.77;;
2998;SDS011;1509;51.964;7.628;2022-11-28T06:16:08;12.33;;;9.30;;
2998;SDS011;1509;51.964;7.628;2022-11-28T06:18:36;16.63;;;11.13;;
2998;SDS011;1509;51.964;7.628;2022-11-28T06:21:03;18.03;;;10.83;;
2998;SDS011;1509;51.964;7.628;2022-11-28T06:23:29;17.07;;;11.77;;
2998;SDS011;1509;51.964;7.628;2022-11-28T06:25:55;15.87;;;11.10;;
2998;SDS011;1509;51.964;7.628;2022-11-28T06:28:21;14.47;;;10.50;;
2998;SDS011;1509;51.964;7.628;2022-11-28T06:30:47;15.50;;;10.50;;
2998;SDS011;1509;51.964;7.628;2022-11-28T06:33:12;14.47;;;10.70;;
2998;SDS011;1509;51.964;7.628;2022-11-28T06:35:38;13.80;;;10.40;;
2998;SDS011;1509;51.964;7.628;2022-11-28T06:38:04;15.60;;;11.20;;
2998;SDS011;1509;51.964;7.628;2022-11-28T06:40:29;18.20;;;12.23;;
2998;SDS011;1509;51.964;7.628;2022-11-28T06:42:56;17.00;;;11.50;;
2998;SDS011;1509;51.964;7.628;2022-11-28T06:45:22;15.13;;;10.97;;
2998;SDS011;1509;51.964;7.628;2022-11-28T06:47:47;14.03;;;10.33;;
2998;SDS011;1509;51.964;7.628;2022-11-28T06:50:13;17.63;;;11.67;;
2998;SDS011;1509;51.964;7.628;2022-11-28T06:52:39;14.77;;;10.50;;
2998;SDS011;1509;51.964;7.628;2022-11-28T06:55:05;16.00;;;10.33;;
2998;SDS011;1509;51.964;7.628;2022-11-28T06:57:31;18.27;;;12.00;;
2998;SDS011;1509;51.964;7.628;2022-11-28T06:59:57;16.53;;;11.83;;
2998;SDS011;1509;51.964;7.628;2022-11-28T07:02:22;17.43;;;12.37;;
2998;SDS011;1509;51.964;7.628;2022-11-28T07:04:49;18.90;;;12.60;;
2998;SDS011;1509;51.964;7.628;2022-11-28T07:07:15;18.43;;;12.33;;
2998;SDS011;1509;51.964;7.628;2022-11-28T07:09:41;20.40;;;11.97;;
2998;SDS011;1509;51.964;7.628;2022-11-28T07:12:07;15.33;;;10.60;;
2998;SDS011;1509;51.964;7.628;2022-11-28T07:14:33;14.90;;;10.67;;
2998;SDS011;1509;51.964;7.628;2022-11-28T07:16:59;19.33;;;10.77;;
2998;SDS011;1509;51.964;7.628;2022-11-28T07:19:24;16.33;;;11.10;;
2998;SDS011;1509;51.964;7.628;2022-11-28T07:21:50;16.17;;;11.30;;
2998;SDS011;1509;51.964;7.628;2022-11-28T07:24:16;14.20;;;9.90;;
2998;SDS011;1509;51.964;7.628;2022-11-28T07:26:43;17.63;;;11.17;;
2998;SDS011;1509;51.964;7.628;2022-11-28T07:29:13;16.30;;;10.70;;
2998;SDS011;1509;51.964;7.628;2022-11-28T07:31:39;16.00;;;11.00;;
2998;SDS011;1509;51.964;7.628;2022-11-28T07:34:05;15.87;;;10.60;;
2998;SDS011;1509;51.964;7.628;2022-11-28T07:36:31;19.27;;;11.37;;
2998;SDS011;1509;51.964;7.628;2022-11-28T07:38:58;15.87;;;10.43;;
2998;SDS011;1509;51.964;7.628;2022-11-28T07:41:25;15.27;;;10.10;;
2998;SDS011;1509;51.964;7.628;2022-11-28T07:43:53;14.83;;;11.10;;
2998;SDS011;1509;51.964;7.628;2022-11-28T07:46:24;15.10;;;10.43;;
2998;SDS011;1509;51.964;7.628;2022-11-28T07:48:50;13.20;;;10.20;;
2998;SDS011;1509;51.964;7.628;2022-11-28T07:51:17;14.83;;;10.20;;
2998;SDS011;1509;51.964;7.628;2022-11-28T07:53:46;15.13;;;10.00;;
2998;SDS011;1509;51.964;7.628;2022-11-28T07:56:14;17.00;;;10.40;;
2998;SDS011;1509;51.964;7.628;2022-11-28T07:58:42;19.00;;;10.50;;
2998;SDS011;1509;51.964;7.628;2022-11-28T08:01:22;18.87;;;10.33;;
2998;SDS011;1509;51.964;7.628;2022-11-28T08:03:50;18.67;;;11.30;;
2998;SDS011;1509;51.964;7.628;2022-11-28T08:06:17;12.93;;;10.73;;
2998;SDS011;1509;51.964;7.628;2022-11-28T08:08:44;18.60;;;10.63;;
2998;SDS011;1509;51.964;7.628;2022-11-28T08:11:11;19.50;;;10.70;;
2998;SDS011;1509;51.964;7.628;2022-11-28T08:13:41;14.80;;;9.30;;
2998;SDS011;1509;51.964;7.628;2022-11-28T08:16:07;14.50;;;9.90;;
2998;SDS011;1509;51.964;7.628;2022-11-28T08:18:37;17.40;;;10.87;;
2998;SDS011;1509;51.964;7.628;2022-11-28T08:21:07;18.27;;;10.80;;
2998;SDS011;1509;51.964;7.628;2022-11-28T08:23:37;13.90;;;9.30;;
2998;SDS011;1509;51.964;7.628;2022-11-28T08:26:04;14.87;;;10.67;;
2998;SDS011;1509;51.964;7.628;2022-11-28T08:28:32;15.50;;;11.93;;
2998;SDS011;1509;51.964;7.628;2022-11-28T08:30:58;18.60;;;10.53;;
2998;SDS011;1509;51.964;7.628;2022-11-28T08:33:26;14.77;;;9.60;;
2998;SDS011;1509;51.964;7.628;2022-11-28T08:35:52;13.67;;;9.57;;
2998;SDS011;1509;51.964;7.628;2022-11-28T08:38:18;14.10;;;8.83;;
2998;SDS011;1509;51.964;7.628;2022-11-28T08:40:43;14.33;;;9.70;;
2998;SDS011;1509;51.964;7.628;2022-11-28T08:43:09;14.30;;;10.67;;
2998;SDS011;1509;51.964;7.628;2022-11-28T08:45:35;12.53;;;9.13;;
2998;SDS011;1509;51.964;7.628;2022-11-28T08:48:02;16.30;;;10.27;;
2998;SDS011;1509;51.964;7.628;2022-11-28T08:50:28;12.77;;;9.50;;
2998;SDS011;1509;51.964;7.628;2022-11-28T08:52:54;10.63;;;8.67;;
2998;SDS011;1509;51.964;7.628;2022-11-28T08:55:20;13.80;;;9.63;;
2998;SDS011;1509;51.964;7.628;2022-11-28T08:57:45;16.77;;;9.83;;
2998;SDS011;1509;51.964;7.628;2022-11-28T09:00:11;17.03;;;10.70;;
2998;SDS011;1509;51.964;7.628;2022-11-28T09:02:37;14.33;;;9.47;;
2998;SDS011;1509;51.964;7.628;2022-11-28T09:05:03;13.67;;;9.30;;
2998;SDS011;1509;51.964;7.628;2022-11-28T09:07:29;14.57;;;9.60;;
2998;SDS011;1509;51.964;7.628;2022-11-28T09:09:55;14.43;;;9.60;;
2998;SDS011;1509;51.964;7.628;2022-11-28T09:12:20;14.03;;;8.37;;
2998;SDS011;1509;51.964;7.628;2022-11-28T09:14:46;16.07;;;9.73;;
2998;SDS011;1509;51.964;7.628;2022-11-28T09:17:11;12.70;;;8.03;;
2998;SDS011;1509;51.964;7.628;2022-11-28T09:19:39;12.47;;;9.47;;
2998;SDS011;1509;51.964;7.628;2022-11-28T09:22:08;11.40;;;8.37;;
2998;SDS011;1509;51.964;7.628;2022-11-28T09:24:37;12.63;;;9.07;;
2998;SDS011;1509;51.964;7.628;2022-11-28T09:27:02;11.33;;;8.93;;
2998;SDS011;1509;51.964;7.628;2022-11-28T09:29:28;13.00;;;9.77;;
2998;SDS011;1509;51.964;7.628;2022-11-28T09:31:54;13.63;;;9.23;;
2998;SDS011;1509;51.964;7.628;2022-11-28T09:34:19;16.53;;;9.47;;
2998;SDS011;1509;51.964;7.628;2022-11-28T09:36:47;16.13;;;9.97;;
2998;SDS011;1509;51.964;7.628;2022-11-28T09:39:14;14.20;;;9.73;;
2998;SDS011;1509;51.964;7.628;2022-11-28T09:42:24;12.80;;;8.73;;
2998;SDS011;1509;51.964;7.628;2022-11-28T09:44:41;15.73;;;9.70;;
2998;SDS011;1509;51.964;7.628;2022-11-28T09:47:11;14.03;;;9.40;;
2998;SDS011;1509;51.964;7.628;2022-11-28T09:50:03;13.87;;;9.20;;
2998;SDS011;1509;51.964;7.628;2022-11-28T09:52:46;12.00;;;8.90;;
2998;SDS011;1509;51.964;7.628;2022-11-28T09:55:34;12.67;;;9.00;;
2998;SDS011;1509;51.964;7.628;2022-11-28T10:06:29;12.13;;;9.07;;
2998;SDS011;1509;51.964;7.628;2022-11-28T10:09:01;10.57;;;7.60;;
2998;SDS011;1509;51.964;7.628;2022-11-28T10:17:23;12.80;;;8.50;;
2998;SDS011;1509;51.964;7.628;2022-11-28T10:20:16;13.03;;;8.23;;
2998;SDS011;1509;51.964;7.628;2022-11-28T10:25:22;10.97;;;7.93;;
2998;SDS011;1509;51.964;7.628;2022-11-28T10:27:54;10.60;;;7.33;;
2998;SDS011;1509;51.964;7.628;2022-11-28T10:30:28;11.60;;;8.73;;
2998;SDS011;1509;51.964;7.628;2022-11-28T10:32:59;9.30;;;7.17;;
2998;SDS011;1509;51.964;7.628;2022-11-28T10:35:47;11.90;;;7.30;;
2998;SDS011;1509;51.964;7.628;2022-11-28T10:38:18;11.43;;;7.40;;
2998;SDS011;1509;51.964;7.628;2022-11-28T10:43:44;11.20;;;8.60;;
2998;SDS011;1509;51.964;7.628;2022-11-28T10:49:17;9.97;;;8.90;;
2998;SDS011;1509;51.964;7.628;2022-11-28T10:52:14;11.67;;;8.20;;
2998;SDS011;1509;51.964;7.628;2022-11-28T10:55:12;11.70;;;8.20;;
2998;SDS011;1509;51.964;7.628;2022-11-28T10:57:58;13.53;;;8.40;;
2998;SDS011;1509;51.964;7.628;2022-11-28T11:00:37;12.20;;;8.47;;
2998;SDS011;1509;51.964;7.628;2022-11-28T11:03:04;9.87;;;7.40;;
2998;SDS011;1509;51.964;7.628;2022-11-28T11:05:37;11.00;;;8.57;;
2998;SDS011;1509;51.964;7.628;2022-11-28T11:08:22;15.73;;;8.10;;
2998;SDS011;1509;51.964;7.628;2022-11-28T11:13:57;10.73;;;7.73;;
2998;SDS011;1509;51.964;7.628;2022-11-28T11:16:45;9.90;;;8.30;;
2998;SDS011;1509;51.964;7.628;2022-11-28T11:19:28;10.70;;;7.07;;
2998;SDS011;1509;51.964;7.628;2022-11-28T11:22:09;11.23;;;8.03;;
2998;SDS011;1509;51.964;7.628;2022-11-28T11:30:30;11.23;;;8.80;;
2998;SDS011;1509;51.964;7.628;2022-11-28T11:32:59;13.47;;;9.40;;
2998;SDS011;1509;51.964;7.628;2022-11-28T11:35:34;10.93;;;8.17;;
2998;SDS011;1509;51.964;7.628;2022-11-28T11:40:46;14.80;;;8.67;;
2998;SDS011;1509;51.964;7.628;2022-11-28T11:43:28;11.60;;;9.00;;
2998;SDS011;1509;51.964;7.628;2022-11-28T11:46:03;14.30;;;8.90;;
2998;SDS011;1509;51.964;7.628;2022-11-28T11:48:35;14.30;;;10.10;;
2998;SDS011;1509;51.964;7.628;2022-11-28T11:51:02;12.80;;;9.33;;
2998;SDS011;1509;51.964;7.628;2022-11-28T11:53:28;14.73;;;9.50;;
2998;SDS011;1509;51.964;7.628;2022-11-28T11:55:53;13.27;;;9.30;;
2998;SDS011;1509;51.964;7.628;2022-11-28T11:58:33;14.67;;;9.13;;
2998;SDS011;1509;51.964;7.628;2022-11-28T12:01:14;13.67;;;9.27;;
2998;SDS011;1509;51.964;7.628;2022-11-28T12:03:48;12.43;;;7.70;;
2998;SDS011;1509;51.964;7.628;2022-11-28T12:06:21;14.57;;;11.47;;
2998;SDS011;1509;51.964;7.628;2022-11-28T12:08:53;11.97;;;8.70;;
2998;SDS011;1509;51.964;7.628;2022-11-28T12:11:38;10.80;;;8.57;;
2998;SDS011;1509;51.964;7.628;2022-11-28T12:14:24;12.90;;;9.53;;
2998;SDS011;1509;51.964;7.628;2022-11-28T12:22:37;15.43;;;10.47;;
2998;SDS011;1509;51.964;7.628;2022-11-28T12:25:29;15.50;;;9.97;;
2998;SDS011;1509;51.964;7.628;2022-11-28T12:31:10;14.90;;;10.43;;
2998;SDS011;1509;51.964;7.628;2022-11-28T12:36:44;11.83;;;9.03;;
2998;SDS011;1509;51.964;7.628;2022-11-28T12:45:26;12.50;;;8.53;;
2998;SDS011;1509;51.964;7.628;2022-11-28T12:53:55;11.23;;;9.43;;
2998;SDS011;1509;51.964;7.628;2022-11-28T13:02:30;12.00;;;8.93;;
2998;SDS011;1509;51.964;7.628;2022-11-28T13:13:05;15.30;;;10.30;;
2998;SDS011;1509;51.964;7.628;2022-11-28T13:15:57;16.50;;;9.17;;
2998;SDS011;1509;51.964;7.628;2022-11-28T13:18:38;13.20;;;8.70;;
2998;SDS011;1509;51.964;7.628;2022-11-28T13:21:18;16.07;;;8.60;;
2998;SDS011;1509;51.964;7.628;2022-11-28T13:24:04;13.13;;;10.10;;
2998;SDS011;1509;51.964;7.628;2022-11-28T13:27:52;14.07;;;10.03;;
2998;SDS011;1509;51.964;7.628;2022-11-28T13:34:55;14.97;;;9.87;;
2998;SDS011;1509;51.964;7.628;2022-11-28T13:42:30;14.03;;;10.70;;
2998;SDS011;1509;51.964;7.628;2022-11-28T13:45:05;15.90;;;10.17;;
2998;SDS011;1509;51.964;7.628;2022-11-28T13:47:48;11.80;;;9.10;;
2998;SDS011;1509;51.964;7.628;2022-11-28T13:52:58;16.77;;;11.40;;
2998;SDS011;1509;51.964;7.628;2022-11-28T13:55:48;14.00;;;10.10;;
2998;SDS011;1509;51.964;7.628;2022-11-28T14:01:25;14.93;;;9.40;;
2998;SDS011;1509;51.964;7.628;2022-11-28T14:06:27;16.40;;;10.50;;
2998;SDS011;1509;51.964;7.628;2022-11-28T14:25:42;16.10;;;10.70;;
2998;SDS011;1509;51.964;7.628;2022-11-28T14:28:29;14.43;;;10.60;;
2998;SDS011;1509;51.964;7.628;2022-11-28T14:31:04;14.07;;;10.40;;
2998;SDS011;1509;51.964;7.628;2022-11-28T14:33:42;17.77;;;12.97;;
2998;SDS011;1509;51.964;7.628;2022-11-28T14:36:25;21.97;;;12.17;;
2998;SDS011;1509;51.964;7.628;2022-11-28T14:42:19;14.30;;;11.37;;
2998;SDS011;1509;51.964;7.628;2022-11-28T14:52:39;14.23;;;9.97;;
2998;SDS011;1509;51.964;7.628;2022-11-28T14:57:55;14.90;;;10.63;;
2998;SDS011;1509;51.964;7.628;2022-11-28T15:00:24;16.07;;;9.50;;
2998;SDS011;1509;51.964;7.628;2022-11-28T15:08:19;17.90;;;12.30;;
2998;SDS011;1509;51.964;7.628;2022-11-28T15:16:33;13.67;;;10.50;;
2998;SDS011;1509;51.964;7.628;2022-11-28T15:21:58;16.60;;;11.43;;
2998;SDS011;1509;51.964;7.628;2022-11-28T15:24:34;18.00;;;12.77;;
2998;SDS011;1509;51.964;7.628;2022-11-28T15:29:30;17.97;;;12.60;;
2998;SDS011;1509;51.964;7.628;2022-11-28T15:31:56;16.77;;;12.50;;
2998;SDS011;1509;51.964;7.628;2022-11-28T15:36:53;15.70;;;12.37;;
2998;SDS011;1509;51.964;7.628;2022-11-28T15:39:34;14.10;;;11.27;;
2998;SDS011;1509;51.964;7.628;2022-11-28T15:42:07;19.37;;;13.57;;
2998;SDS011;1509;51.964;7.628;2022-11-28T15:44:43;18.23;;;12.00;;
2998;SDS011;1509;51.964;7.628;2022-11-28T15:47:17;18.33;;;12.13;;
2998;SDS011;1509;51.964;7.628;2022-11-28T15:49:44;19.27;;;11.83;;
2998;SDS011;1509;51.964;7.628;2022-11-28T15:52:21;20.50;;;13.77;;
2998;SDS011;1509;51.964;7.628;2022-11-28T15:54:47;20.00;;;13.20;;
2998;SDS011;1509;51.964;7.628;2022-11-28T15:57:25;23.80;;;14.13;;
2998;SDS011;1509;51.964;7.628;2022-11-28T15:59:52;21.60;;;12.93;;
2998;SDS011;1509;51.964;7.628;2022-11-28T16:02:27;19.57;;;12.50;;
2998;SDS011;1509;51.964;7.628;2022-11-28T16:05:03;21.53;;;14.57;;
2998;SDS011;1509;51.964;7.628;2022-11-28T16:07:31;23.90;;;14.00;;
2998;SDS011;1509;51.964;7.628;2022-11-28T16:09:59;19.03;;;13.27;;
2998;SDS011;1509;51.964;7.628;2022-11-28T16:12:27;20.20;;;13.93;;
2998;SDS011;1509;51.964;7.628;2022-11-28T16:14:56;20.00;;;12.80;;
2998;SDS011;1509;51.964;7.628;2022-11-28T16:17:30;18.90;;;11.83;;
2998;SDS011;1509;51.964;7.628;2022-11-28T16:19:57;17.23;;;12.20;;
2998;SDS011;1509;51.964;7.628;2022-11-28T16:22:29;18.10;;;14.60;;
2998;SDS011;1509;51.964;7.628;2022-11-28T16:25:09;22.67;;;12.40;;
2998;SDS011;1509;51.964;7.628;2022-11-28T16:27:45;20.73;;;12.73;;
2998;SDS011;1509;51.964;7.628;2022-11-28T16:33:00;18.67;;;13.47;;
2998;SDS011;1509;51.964;7.628;2022-11-28T16:35:36;19.53;;;13.00;;
2998;SDS011;1509;51.964;7.628;2022-11-28T16:38:05;20.07;;;12.40;;
2998;SDS011;1509;51.964;7.628;2022-11-28T16:40:39;18.30;;;13.17;;
2998;SDS011;1509;51.964;7.628;2022-11-28T16:43:15;21.30;;;13.53;;
2998;SDS011;1509;51.964;7.628;2022-11-28T16:45:42;19.80;;;12.60;;
2998;SDS011;1509;51.964;7.628;2022-11-28T16:48:08;22.43;;;13.63;;
2998;SDS011;1509;51.964;7.628;2022-11-28T16:50:39;23.80;;;12.80;;
2998;SDS011;1509;51.964;7.628;2022-11-28T16:56:07;21.00;;;13.47;;
2998;SDS011;1509;51.964;7.628;2022-11-28T16:58:53;21.20;;;14.03;;
2998;SDS011;1509;51.964;7.628;2022-11-28T17:01:27;17.73;;;13.00;;
2998;SDS011;1509;51.964;7.628;2022-11-28T17:03:53;20.73;;;13.37;;
2998;SDS011;1509;51.964;7.628;2022-11-28T17:08:55;25.33;;;13.83;;
2998;SDS011;1509;51.964;7.628;2022-11-28T17:11:22;19.20;;;14.57;;
2998;SDS011;1509;51.964;7.628;2022-11-28T17:13:50;20.50;;;13.70;;
2998;SDS011;1509;51.964;7.628;2022-11-28T17:16:17;19.60;;;13.70;;
2998;SDS011;1509;51.964;7.628;2022-11-28T17:18:45;21.97;;;15.20;;
2998;SDS011;1509;51.964;7.628;2022-11-28T17:21:11;20.00;;;15.20;;
2998;SDS011;1509;51.964;7.628;2022-11-28T17:23:37;28.80;;;16.43;;
2998;SDS011;1509;51.964;7.628;2022-11-28T17:26:04;28.10;;;15.10;;
2998;SDS011;1509;51.964;7.628;2022-11-28T17:28:30;19.07;;;14.13;;
2998;SDS011;1509;51.964;7.628;2022-11-28T17:30:56;22.90;;;15.23;;
2998;SDS011;1509;51.964;7.628;2022-11-28T17:33:22;20.67;;;14.90;;
2998;SDS011;1509;51.964;7.628;2022-11-28T17:35:48;24.00;;;14.93;;
2998;SDS011;1509;51.964;7.628;2022-11-28T17:38:15;26.40;;;16.27;;
2998;SDS011;1509;51.964;7.628;2022-11-28T17:40:41;23.10;;;14.40;;
2998;SDS011;1509;51.964;7.628;2022-11-28T17:43:15;23.30;;;16.13;;
2998;SDS011;1509;51.964;7.628;2022-11-28T17:45:42;23.03;;;15.37;;
2998;SDS011;1509;51.964;7.628;2022-11-28T17:48:08;30.30;;;16.10;;
2998;SDS011;1509;51.964;7.628;2022-11-28T17:50:38;25.70;;;14.57;;
2998;SDS011;1509;51.964;7.628;2022-11-28T17:53:04;27.23;;;16.47;;
2998;SDS011;1509;51.964;7.628;2022-11-28T17:55:30;28.23;;;15.00;;
2998;SDS011;1509;51.964;7.628;2022-11-28T17:57:56;22.93;;;14.80;;
2998;SDS011;1509;51.964;7.628;2022-11-28T18:00:21;27.10;;;14.50;;
2998;SDS011;1509;51.964;7.628;2022-11-28T18:02:47;22.43;;;15.83;;
2998;SDS011;1509;51.964;7.628;2022-11-28T18:05:13;35.10;;;15.53;;
2998;SDS011;1509;51.964;7.628;2022-11-28T18:07:38;25.00;;;15.23;;
2998;SDS011;1509;51.964;7.628;2022-11-28T18:10:04;29.57;;;15.00;;
2998;SDS011;1509;51.964;7.628;2022-11-28T18:12:30;28.20;;;15.33;;
2998;SDS011;1509;51.964;7.628;2022-11-28T18:14:56;28.77;;;17.20;;
2998;SDS011;1509;51.964;7.628;2022-11-28T18:17:24;31.07;;;15.43;;
2998;SDS011;1509;51.964;7.628;2022-11-28T18:19:49;30.90;;;16.43;;
2998;SDS011;1509;51.964;7.628;2022-11-28T18:22:15;31.60;;;16.77;;
2998;SDS011;1509;51.964;7.628;2022-11-28T18:24:40;32.33;;;17.93;;
2998;SDS011;1509;51.964;7.628;2022-11-28T18:27:06;27.87;;;17.03;;
2998;SDS011;1509;51.964;7.628;2022-11-28T18:29:32;26.40;;;14.67;;
2998;SDS011;1509;51.964;7.628;2022-11-28T18:31:58;30.60;;;16.27;;
2998;SDS011;1509;51.964;7.628;2022-11-28T18:34:24;31.77;;;17.70;;
2998;SDS011;1509;51.964;7.628;2022-11-28T18:36:50;31.80;;;16.80;;
2998;SDS011;1509;51.964;7.628;2022-11-28T18:39:22;27.00;;;16.07;;
2998;SDS011;1509;51.964;7.628;2022-11-28T18:41:48;32.80;;;19.77;;
2998;SDS011;1509;51.964;7.628;2022-11-28T18:44:13;30.27;;;16.60;;
2998;SDS011;1509;51.964;7.628;2022-11-28T18:46:39;26.10;;;16.17;;
2998;SDS011;1509;51.964;7.628;2022-11-28T18:49:04;29.83;;;17.00;;
2998;SDS011;1509;51.964;7.628;2022-11-28T18:51:32;28.07;;;17.40;;